Impacts TAF Board
For situational awareness. Not to be used for flight planning purposes.
IDs:

KDCA - Washington/National, VA, US

Issued at 1128 UTC 16 Sep 2019
Updated at 1324 UTC 16 Sep 2019
Potential Impact None Slight Moderate High
Time<<17/02Z 17/03Z 17/04Z 17/05Z 17/06Z 17/07Z 17/08Z 17/09Z 17/10Z 17/11Z 17/12Z 17/13Z 17/14Z>>
Type PRVL PRVL PRVL PRVL PRVL PRVL PRVL PRVL PRVL PRVL PRVL PRVL PRVL
VIS >6 >6 >6 >6 >6 >6 >6 >6 >6 >6 >6 >6 >6
CIG 250 70 70 70 70 70 70 70 70 70 70 70 70
Cover BKN BKN BKN BKN BKN BKN BKN BKN BKN BKN BKN BKN BKN
FltCat VFR VFR VFR VFR VFR VFR VFR VFR VFR VFR VFR VFR VFR
WX -- -- -- -- -- -- -- -- -- -- -- -- --
WDir 210 80 80 80 80 80 80 80 80 80 80 80 80
WSpd 6 4 4 4 4 4 4 4 4 4 4 4 4
WGst -- -- -- -- -- -- -- -- -- -- -- -- --
Raw TAF
KDCA 161128Z 1612/1718 00000KT P6SM FEW120
  FM161900 21006KT P6SM SCT080 BKN250
  FM170300 08004KT P6SM SCT030 BKN070
  FM171700 05007KT P6SM SCT045 BKN060


METAR Board
Radar Display
Forecast Discussion
For situational awareness. Not to be used for flight planning purposes.